sensor_id;sensor_type;location;lat;lon;timestamp;temperature;humidity
9118;DHT22;4594;50.994;7.126;2023-10-09T00:00:54;16.50;45.10
9118;DHT22;4594;50.994;7.126;2023-10-09T00:03:30;16.50;45.20
9118;DHT22;4594;50.994;7.126;2023-10-09T00:05:57;16.50;45.30
9118;DHT22;4594;50.994;7.126;2023-10-09T00:08:23;16.40;45.40
9118;DHT22;4594;50.994;7.126;2023-10-09T00:11:00;16.40;45.40
9118;DHT22;4594;50.994;7.126;2023-10-09T00:13:47;16.40;45.50
9118;DHT22;4594;50.994;7.126;2023-10-09T00:16:23;16.40;45.50
9118;DHT22;4594;50.994;7.126;2023-10-09T00:19:02;16.40;45.50
9118;DHT22;4594;50.994;7.126;2023-10-09T00:21:46;16.50;45.70
9118;DHT22;4594;50.994;7.126;2023-10-09T00:24:14;16.40;45.70
9118;DHT22;4594;50.994;7.126;2023-10-09T00:26:50;16.40;45.70
9118;DHT22;4594;50.994;7.126;2023-10-09T00:29:17;16.40;45.80
9118;DHT22;4594;50.994;7.126;2023-10-09T00:31:59;16.40;45.80
9118;DHT22;4594;50.994;7.126;2023-10-09T00:34:49;16.40;45.70
9118;DHT22;4594;50.994;7.126;2023-10-09T00:37:18;16.40;45.70
9118;DHT22;4594;50.994;7.126;2023-10-09T00:39:52;16.40;45.70
9118;DHT22;4594;50.994;7.126;2023-10-09T00:42:23;16.30;45.60
9118;DHT22;4594;50.994;7.126;2023-10-09T00:44:56;16.30;45.60
9118;DHT22;4594;50.994;7.126;2023-10-09T00:47:22;16.20;45.50
9118;DHT22;4594;50.994;7.126;2023-10-09T00:50:03;16.10;45.40
9118;DHT22;4594;50.994;7.126;2023-10-09T00:52:42;16.20;45.80
9118;DHT22;4594;50.994;7.126;2023-10-09T00:55:27;16.30;45.60
9118;DHT22;4594;50.994;7.126;2023-10-09T00:58:03;16.10;45.40
9118;DHT22;4594;50.994;7.126;2023-10-09T01:00:41;16.10;45.40
9118;DHT22;4594;50.994;7.126;2023-10-09T01:03:20;16.00;45.30
9118;DHT22;4594;50.994;7.126;2023-10-09T01:05:48;16.00;46.00
9118;DHT22;4594;50.994;7.126;2023-10-09T01:08:27;15.90;45.50
9118;DHT22;4594;50.994;7.126;2023-10-09T01:11:12;15.90;45.70
9118;DHT22;4594;50.994;7.126;2023-10-09T01:13:48;15.90;45.60
9118;DHT22;4594;50.994;7.126;2023-10-09T01:16:21;15.90;45.50
9118;DHT22;4594;50.994;7.126;2023-10-09T01:18:55;15.80;45.50
9118;DHT22;4594;50.994;7.126;2023-10-09T01:21:25;15.80;45.70
9118;DHT22;4594;50.994;7.126;2023-10-09T01:23:52;15.70;45.40
9118;DHT22;4594;50.994;7.126;2023-10-09T01:26:31;15.80;45.50
9118;DHT22;4594;50.994;7.126;2023-10-09T01:29:08;15.70;45.80
9118;DHT22;4594;50.994;7.126;2023-10-09T01:31:49;15.60;45.60
9118;DHT22;4594;50.994;7.126;2023-10-09T01:34:23;15.60;45.60
9118;DHT22;4594;50.994;7.126;2023-10-09T01:37:08;15.60;45.70
9118;DHT22;4594;50.994;7.126;2023-10-09T01:39:48;15.60;45.80
9118;DHT22;4594;50.994;7.126;2023-10-09T01:42:19;15.60;46.10
9118;DHT22;4594;50.994;7.126;2023-10-09T01:45:10;15.60;46.00
9118;DHT22;4594;50.994;7.126;2023-10-09T01:47:37;15.70;46.20
9118;DHT22;4594;50.994;7.126;2023-10-09T01:50:07;15.60;46.30
9118;DHT22;4594;50.994;7.126;2023-10-09T01:52:59;15.60;46.80
9118;DHT22;4594;50.994;7.126;2023-10-09T01:55:29;15.60;46.70
9118;DHT22;4594;50.994;7.126;2023-10-09T01:58:04;15.60;47.00
9118;DHT22;4594;50.994;7.126;2023-10-09T02:00:48;15.60;47.10
9118;DHT22;4594;50.994;7.126;2023-10-09T02:03:19;15.70;47.00
9118;DHT22;4594;50.994;7.126;2023-10-09T02:05:51;15.70;47.10
9118;DHT22;4594;50.994;7.126;2023-10-09T02:08:28;15.80;47.30
9118;DHT22;4594;50.994;7.126;2023-10-09T02:10:55;15.80;47.60
9118;DHT22;4594;50.994;7.126;2023-10-09T02:13:22;15.80;47.30
9118;DHT22;4594;50.994;7.126;2023-10-09T02:16:00;15.90;47.40
9118;DHT22;4594;50.994;7.126;2023-10-09T02:18:53;15.90;47.30
9118;DHT22;4594;50.994;7.126;2023-10-09T02:21:22;15.90;47.10
9118;DHT22;4594;50.994;7.126;2023-10-09T02:24:06;16.00;47.20
9118;DHT22;4594;50.994;7.126;2023-10-09T02:26:34;16.00;47.20
9118;DHT22;4594;50.994;7.126;2023-10-09T02:29:03;16.00;47.20
9118;DHT22;4594;50.994;7.126;2023-10-09T02:31:42;16.00;47.20
9118;DHT22;4594;50.994;7.126;2023-10-09T02:34:19;16.00;47.20
9118;DHT22;4594;50.994;7.126;2023-10-09T02:36:51;16.00;47.30
9118;DHT22;4594;50.994;7.126;2023-10-09T02:39:26;16.00;47.40
9118;DHT22;4594;50.994;7.126;2023-10-09T02:41:52;16.10;47.70
9118;DHT22;4594;50.994;7.126;2023-10-09T02:44:25;16.10;47.50
9118;DHT22;4594;50.994;7.126;2023-10-09T02:46:52;16.10;47.40
9118;DHT22;4594;50.994;7.126;2023-10-09T02:49:23;16.10;47.40
9118;DHT22;4594;50.994;7.126;2023-10-09T02:51:49;16.10;47.30
9118;DHT22;4594;50.994;7.126;2023-10-09T02:54:18;16.10;47.30
9118;DHT22;4594;50.994;7.126;2023-10-09T02:56:48;16.10;47.30
9118;DHT22;4594;50.994;7.126;2023-10-09T02:59:22;16.10;47.30
9118;DHT22;4594;50.994;7.126;2023-10-09T03:01:49;16.10;47.60
9118;DHT22;4594;50.994;7.126;2023-10-09T03:04:18;16.20;47.40
9118;DHT22;4594;50.994;7.126;2023-10-09T03:06:45;16.20;47.30
9118;DHT22;4594;50.994;7.126;2023-10-09T03:09:20;16.20;47.30
9118;DHT22;4594;50.994;7.126;2023-10-09T03:12:00;16.20;47.50
9118;DHT22;4594;50.994;7.126;2023-10-09T03:14:32;16.20;47.50
9118;DHT22;4594;50.994;7.126;2023-10-09T03:17:04;16.10;47.30
9118;DHT22;4594;50.994;7.126;2023-10-09T03:19:33;16.10;47.40
9118;DHT22;4594;50.994;7.126;2023-10-09T03:22:06;16.20;47.70
9118;DHT22;4594;50.994;7.126;2023-10-09T03:24:36;16.10;47.50
9118;DHT22;4594;50.994;7.126;2023-10-09T03:27:03;16.10;47.40
9118;DHT22;4594;50.994;7.126;2023-10-09T03:29:29;16.10;47.40
9118;DHT22;4594;50.994;7.126;2023-10-09T03:31:55;16.10;47.40
9118;DHT22;4594;50.994;7.126;2023-10-09T03:34:22;16.10;47.40
9118;DHT22;4594;50.994;7.126;2023-10-09T03:36:49;16.10;47.50
9118;DHT22;4594;50.994;7.126;2023-10-09T03:39:32;16.10;47.50
9118;DHT22;4594;50.994;7.126;2023-10-09T03:42:06;16.10;47.50
9118;DHT22;4594;50.994;7.126;2023-10-09T03:44:38;16.20;47.60
9118;DHT22;4594;50.994;7.126;2023-10-09T03:47:08;16.10;47.70
9118;DHT22;4594;50.994;7.126;2023-10-09T03:49:36;16.20;47.80
9118;DHT22;4594;50.994;7.126;2023-10-09T03:52:05;16.20;47.80
9118;DHT22;4594;50.994;7.126;2023-10-09T03:54:34;16.20;47.90
9118;DHT22;4594;50.994;7.126;2023-10-09T03:57:01;16.20;47.90
9118;DHT22;4594;50.994;7.126;2023-10-09T03:59:28;16.20;47.80
9118;DHT22;4594;50.994;7.126;2023-10-09T04:01:56;16.20;47.80
9118;DHT22;4594;50.994;7.126;2023-10-09T04:04:24;16.20;47.80
9118;DHT22;4594;50.994;7.126;2023-10-09T04:06:50;16.20;47.90
9118;DHT22;4594;50.994;7.126;2023-10-09T04:09:19;16.20;48.30
9118;DHT22;4594;50.994;7.126;2023-10-09T04:11:49;16.20;48.10
9118;DHT22;4594;50.994;7.126;2023-10-09T04:14:40;16.20;48.10
9118;DHT22;4594;50.994;7.126;2023-10-09T04:17:15;16.30;48.30
9118;DHT22;4594;50.994;7.126;2023-10-09T04:19:59;16.20;48.10
9118;DHT22;4594;50.994;7.126;2023-10-09T04:22:59;16.30;48.20
9118;DHT22;4594;50.994;7.126;2023-10-09T04:25:30;16.30;48.20
9118;DHT22;4594;50.994;7.126;2023-10-09T04:28:08;16.30;48.30
9118;DHT22;4594;50.994;7.126;2023-10-09T04:30:44;16.40;48.40
9118;DHT22;4594;50.994;7.126;2023-10-09T04:33:21;16.40;48.40
9118;DHT22;4594;50.994;7.126;2023-10-09T04:36:03;16.40;48.40
9118;DHT22;4594;50.994;7.126;2023-10-09T04:38:44;16.40;48.60
9118;DHT22;4594;50.994;7.126;2023-10-09T04:41:22;16.40;48.40
9118;DHT22;4594;50.994;7.126;2023-10-09T04:43:56;16.40;48.50
9118;DHT22;4594;50.994;7.126;2023-10-09T04:46:40;16.40;48.50
9118;DHT22;4594;50.994;7.126;2023-10-09T04:49:24;16.40;48.40
9118;DHT22;4594;50.994;7.126;2023-10-09T04:51:56;16.40;48.40
9118;DHT22;4594;50.994;7.126;2023-10-09T04:54:31;16.40;48.70
9118;DHT22;4594;50.994;7.126;2023-10-09T04:57:26;16.40;48.60
9118;DHT22;4594;50.994;7.126;2023-10-09T04:59:51;16.50;48.60
9118;DHT22;4594;50.994;7.126;2023-10-09T05:02:17;16.50;48.70
9118;DHT22;4594;50.994;7.126;2023-10-09T05:04:48;16.50;48.70
9118;DHT22;4594;50.994;7.126;2023-10-09T05:07:34;16.50;49.00
9118;DHT22;4594;50.994;7.126;2023-10-09T05:10:20;16.60;48.80
9118;DHT22;4594;50.994;7.126;2023-10-09T05:12:51;16.60;48.80
9118;DHT22;4594;50.994;7.126;2023-10-09T05:15:23;16.60;48.80
9118;DHT22;4594;50.994;7.126;2023-10-09T05:17:57;16.60;48.90
9118;DHT22;4594;50.994;7.126;2023-10-09T05:20:34;16.70;48.90
9118;DHT22;4594;50.994;7.126;2023-10-09T05:23:19;16.60;48.80
9118;DHT22;4594;50.994;7.126;2023-10-09T05:25:51;16.70;48.80
9118;DHT22;4594;50.994;7.126;2023-10-09T05:28:21;16.70;48.70
9118;DHT22;4594;50.994;7.126;2023-10-09T05:30:51;16.70;48.70
9118;DHT22;4594;50.994;7.126;2023-10-09T05:33:29;16.70;48.80
9118;DHT22;4594;50.994;7.126;2023-10-09T05:35:55;16.70;49.10
9118;DHT22;4594;50.994;7.126;2023-10-09T05:38:39;16.80;48.90
9118;DHT22;4594;50.994;7.126;2023-10-09T05:41:12;16.80;48.90
9118;DHT22;4594;50.994;7.126;2023-10-09T05:44:11;16.80;48.80
9118;DHT22;4594;50.994;7.126;2023-10-09T05:46:55;16.80;48.70
9118;DHT22;4594;50.994;7.126;2023-10-09T05:49:40;16.80;48.70
9118;DHT22;4594;50.994;7.126;2023-10-09T05:52:14;16.80;48.80
9118;DHT22;4594;50.994;7.126;2023-10-09T05:54:58;16.80;48.90
9118;DHT22;4594;50.994;7.126;2023-10-09T05:57:36;16.80;48.80
9118;DHT22;4594;50.994;7.126;2023-10-09T06:00:17;16.80;48.80
9118;DHT22;4594;50.994;7.126;2023-10-09T06:03:01;16.80;48.90
9118;DHT22;4594;50.994;7.126;2023-10-09T06:05:51;16.80;48.90
9118;DHT22;4594;50.994;7.126;2023-10-09T06:08:26;16.90;49.10
9118;DHT22;4594;50.994;7.126;2023-10-09T06:11:14;16.90;49.40
9118;DHT22;4594;50.994;7.126;2023-10-09T06:14:00;16.90;49.30
9118;DHT22;4594;50.994;7.126;2023-10-09T06:16:35;16.90;49.30
9118;DHT22;4594;50.994;7.126;2023-10-09T06:19:05;16.90;49.40
9118;DHT22;4594;50.994;7.126;2023-10-09T06:21:34;17.00;49.40
9118;DHT22;4594;50.994;7.126;2023-10-09T06:24:22;17.00;49.50
9118;DHT22;4594;50.994;7.126;2023-10-09T06:26:49;17.00;49.60
9118;DHT22;4594;50.994;7.126;2023-10-09T06:29:28;17.00;49.50
9118;DHT22;4594;50.994;7.126;2023-10-09T06:32:04;17.10;49.70
9118;DHT22;4594;50.994;7.126;2023-10-09T06:34:57;17.10;49.60
9118;DHT22;4594;50.994;7.126;2023-10-09T06:37:51;17.20;49.70
9118;DHT22;4594;50.994;7.126;2023-10-09T06:43:16;17.20;49.70
9118;DHT22;4594;50.994;7.126;2023-10-09T06:45:56;17.30;49.90
9118;DHT22;4594;50.994;7.126;2023-10-09T06:48:40;17.30;49.90
9118;DHT22;4594;50.994;7.126;2023-10-09T06:51:12;17.30;50.00
9118;DHT22;4594;50.994;7.126;2023-10-09T06:54:01;17.40;50.20
9118;DHT22;4594;50.994;7.126;2023-10-09T06:56:35;17.50;50.20
9118;DHT22;4594;50.994;7.126;2023-10-09T06:59:02;17.50;50.40
9118;DHT22;4594;50.994;7.126;2023-10-09T07:01:33;17.60;50.70
9118;DHT22;4594;50.994;7.126;2023-10-09T07:04:05;17.60;50.70
9118;DHT22;4594;50.994;7.126;2023-10-09T07:06:57;17.70;51.00
9118;DHT22;4594;50.994;7.126;2023-10-09T07:09:24;17.80;51.10
9118;DHT22;4594;50.994;7.126;2023-10-09T07:12:10;17.90;51.30
9118;DHT22;4594;50.994;7.126;2023-10-09T07:14:46;18.00;51.40
9118;DHT22;4594;50.994;7.126;2023-10-09T07:17:12;18.10;51.40
9118;DHT22;4594;50.994;7.126;2023-10-09T07:19:56;18.20;51.50
9118;DHT22;4594;50.994;7.126;2023-10-09T07:22:35;18.20;51.40
9118;DHT22;4594;50.994;7.126;2023-10-09T07:25:05;18.30;51.30
9118;DHT22;4594;50.994;7.126;2023-10-09T07:27:54;18.40;51.20
9118;DHT22;4594;50.994;7.126;2023-10-09T07:30:21;18.40;51.00
9118;DHT22;4594;50.994;7.126;2023-10-09T07:33:06;18.50;51.00
9118;DHT22;4594;50.994;7.126;2023-10-09T07:35:36;18.60;51.30
9118;DHT22;4594;50.994;7.126;2023-10-09T07:38:16;18.60;51.10
9118;DHT22;4594;50.994;7.126;2023-10-09T07:40:50;18.70;51.30
9118;DHT22;4594;50.994;7.126;2023-10-09T07:43:33;18.80;51.70
9118;DHT22;4594;50.994;7.126;2023-10-09T07:46:11;18.90;51.80
9118;DHT22;4594;50.994;7.126;2023-10-09T07:49:02;19.00;52.20
9118;DHT22;4594;50.994;7.126;2023-10-09T07:51:36;19.20;52.80
9118;DHT22;4594;50.994;7.126;2023-10-09T07:54:03;19.40;52.90
9118;DHT22;4594;50.994;7.126;2023-10-09T07:56:35;19.60;53.00
9118;DHT22;4594;50.994;7.126;2023-10-09T07:59:07;19.90;53.10
9118;DHT22;4594;50.994;7.126;2023-10-09T08:01:56;20.10;53.20
9118;DHT22;4594;50.994;7.126;2023-10-09T08:04:28;20.40;52.60
9118;DHT22;4594;50.994;7.126;2023-10-09T08:07:05;20.60;52.50
9118;DHT22;4594;50.994;7.126;2023-10-09T08:09:36;20.80;52.10
9118;DHT22;4594;50.994;7.126;2023-10-09T08:12:12;20.90;51.80
9118;DHT22;4594;50.994;7.126;2023-10-09T08:14:57;21.00;51.40
9118;DHT22;4594;50.994;7.126;2023-10-09T08:17:46;21.10;50.90
9118;DHT22;4594;50.994;7.126;2023-10-09T08:20:28;21.20;50.60
9118;DHT22;4594;50.994;7.126;2023-10-09T08:23:01;21.30;50.40
9118;DHT22;4594;50.994;7.126;2023-10-09T08:25:30;21.30;50.00
9118;DHT22;4594;50.994;7.126;2023-10-09T08:28:02;21.30;49.70
9118;DHT22;4594;50.994;7.126;2023-10-09T08:30:40;21.40;49.60
9118;DHT22;4594;50.994;7.126;2023-10-09T08:33:14;21.40;49.40
9118;DHT22;4594;50.994;7.126;2023-10-09T08:35:56;21.40;49.10
9118;DHT22;4594;50.994;7.126;2023-10-09T08:38:30;21.50;49.20
9118;DHT22;4594;50.994;7.126;2023-10-09T08:41:09;21.50;49.00
9118;DHT22;4594;50.994;7.126;2023-10-09T08:43:49;21.60;48.50
9118;DHT22;4594;50.994;7.126;2023-10-09T08:46:19;21.60;48.10
9118;DHT22;4594;50.994;7.126;2023-10-09T08:48:55;21.60;47.90
9118;DHT22;4594;50.994;7.126;2023-10-09T08:51:26;21.60;47.70
9118;DHT22;4594;50.994;7.126;2023-10-09T08:53:55;21.60;47.40
9118;DHT22;4594;50.994;7.126;2023-10-09T08:56:21;21.60;48.00
9118;DHT22;4594;50.994;7.126;2023-10-09T08:58:49;21.70;48.40
9118;DHT22;4594;50.994;7.126;2023-10-09T09:01:20;21.80;48.90
9118;DHT22;4594;50.994;7.126;2023-10-09T09:03:48;21.90;49.10
9118;DHT22;4594;50.994;7.126;2023-10-09T09:06:17;22.10;49.30
9118;DHT22;4594;50.994;7.126;2023-10-09T09:08:45;22.30;49.30
9118;DHT22;4594;50.994;7.126;2023-10-09T09:11:14;22.40;49.00
9118;DHT22;4594;50.994;7.126;2023-10-09T09:13:44;22.60;48.70
9118;DHT22;4594;50.994;7.126;2023-10-09T09:21:18;22.90;47.10
9118;DHT22;4594;50.994;7.126;2023-10-09T09:23:58;22.90;47.10
9118;DHT22;4594;50.994;7.126;2023-10-09T09:26:37;23.00;46.90
9118;DHT22;4594;50.994;7.126;2023-10-09T09:29:11;23.10;46.20
9118;DHT22;4594;50.994;7.126;2023-10-09T09:31:38;23.10;46.60
9118;DHT22;4594;50.994;7.126;2023-10-09T09:34:07;23.20;46.60
9118;DHT22;4594;50.994;7.126;2023-10-09T09:36:56;23.30;46.40
9118;DHT22;4594;50.994;7.126;2023-10-09T09:39:25;23.40;46.00
9118;DHT22;4594;50.994;7.126;2023-10-09T09:41:59;23.50;46.10
9118;DHT22;4594;50.994;7.126;2023-10-09T09:44:44;23.60;45.60
9118;DHT22;4594;50.994;7.126;2023-10-09T09:47:14;23.60;45.90
9118;DHT22;4594;50.994;7.126;2023-10-09T09:49:50;23.70;45.80
9118;DHT22;4594;50.994;7.126;2023-10-09T09:52:29;23.70;45.70
9118;DHT22;4594;50.994;7.126;2023-10-09T09:55:07;23.90;46.20
9118;DHT22;4594;50.994;7.126;2023-10-09T09:57:44;24.10;46.70
9118;DHT22;4594;50.994;7.126;2023-10-09T10:00:18;24.40;47.40
9118;DHT22;4594;50.994;7.126;2023-10-09T10:03:06;24.90;48.60
9118;DHT22;4594;50.994;7.126;2023-10-09T10:05:37;25.40;48.30
9118;DHT22;4594;50.994;7.126;2023-10-09T10:08:06;26.00;48.60
9118;DHT22;4594;50.994;7.126;2023-10-09T10:10:39;26.40;48.10
9118;DHT22;4594;50.994;7.126;2023-10-09T10:13:54;26.80;47.10
9118;DHT22;4594;50.994;7.126;2023-10-09T10:16:09;27.00;46.30
9118;DHT22;4594;50.994;7.126;2023-10-09T10:18:59;27.20;45.20
9118;DHT22;4594;50.994;7.126;2023-10-09T10:21:37;27.40;44.30
9118;DHT22;4594;50.994;7.126;2023-10-09T10:35:17;27.50;42.80
9118;DHT22;4594;50.994;7.126;2023-10-09T10:37:46;27.50;43.20
9118;DHT22;4594;50.994;7.126;2023-10-09T10:40:28;27.50;43.10
9118;DHT22;4594;50.994;7.126;2023-10-09T10:43:18;27.60;42.90
9118;DHT22;4594;50.994;7.126;2023-10-09T10:48:34;27.60;41.90
9118;DHT22;4594;50.994;7.126;2023-10-09T10:51:07;27.60;41.90
9118;DHT22;4594;50.994;7.126;2023-10-09T10:53:37;27.60;41.80
9118;DHT22;4594;50.994;7.126;2023-10-09T10:56:13;27.70;41.90
9118;DHT22;4594;50.994;7.126;2023-10-09T10:58:40;27.60;41.80
9118;DHT22;4594;50.994;7.126;2023-10-09T11:01:35;27.50;41.70
9118;DHT22;4594;50.994;7.126;2023-10-09T11:04:21;27.60;41.60
9118;DHT22;4594;50.994;7.126;2023-10-09T11:07:04;27.50;41.40
9118;DHT22;4594;50.994;7.126;2023-10-09T11:12:41;27.40;41.30
9118;DHT22;4594;50.994;7.126;2023-10-09T11:15:11;27.40;41.30
9118;DHT22;4594;50.994;7.126;2023-10-09T11:18:03;27.30;41.20
9118;DHT22;4594;50.994;7.126;2023-10-09T11:20:37;27.30;40.60
9118;DHT22;4594;50.994;7.126;2023-10-09T11:23:04;27.30;40.70
9118;DHT22;4594;50.994;7.126;2023-10-09T11:25:39;27.30;40.80
9118;DHT22;4594;50.994;7.126;2023-10-09T11:28:22;27.30;40.50
9118;DHT22;4594;50.994;7.126;2023-10-09T11:31:15;27.20;40.20
9118;DHT22;4594;50.994;7.126;2023-10-09T11:33:47;27.20;40.00
9118;DHT22;4594;50.994;7.126;2023-10-09T11:36:23;27.20;40.60
9118;DHT22;4594;50.994;7.126;2023-10-09T11:39:01;27.20;39.90
9118;DHT22;4594;50.994;7.126;2023-10-09T11:41:43;27.10;40.00
9118;DHT22;4594;50.994;7.126;2023-10-09T11:44:10;27.10;40.20
9118;DHT22;4594;50.994;7.126;2023-10-09T11:46:58;27.10;40.20
9118;DHT22;4594;50.994;7.126;2023-10-09T11:50:01;27.00;39.70
9118;DHT22;4594;50.994;7.126;2023-10-09T11:52:30;27.10;40.10
9118;DHT22;4594;50.994;7.126;2023-10-09T11:57:28;27.00;40.00
9118;DHT22;4594;50.994;7.126;2023-10-09T12:00:05;27.00;40.00
9118;DHT22;4594;50.994;7.126;2023-10-09T12:02:54;27.00;40.00
9118;DHT22;4594;50.994;7.126;2023-10-09T12:05:20;27.00;40.00
9118;DHT22;4594;50.994;7.126;2023-10-09T12:07:46;27.00;39.90
9118;DHT22;4594;50.994;7.126;2023-10-09T12:10:19;27.00;39.90
9118;DHT22;4594;50.994;7.126;2023-10-09T12:12:51;27.00;39.70
9118;DHT22;4594;50.994;7.126;2023-10-09T12:15:23;27.00;39.70
9118;DHT22;4594;50.994;7.126;2023-10-09T12:17:50;27.00;39.70
9118;DHT22;4594;50.994;7.126;2023-10-09T12:20:19;26.90;39.60
9118;DHT22;4594;50.994;7.126;2023-10-09T12:23:02;26.90;39.50
9118;DHT22;4594;50.994;7.126;2023-10-09T12:25:33;26.90;39.30
9118;DHT22;4594;50.994;7.126;2023-10-09T12:28:01;26.80;39.40
9118;DHT22;4594;50.994;7.126;2023-10-09T12:30:31;26.80;39.40
9118;DHT22;4594;50.994;7.126;2023-10-09T12:33:05;26.80;39.30
9118;DHT22;4594;50.994;7.126;2023-10-09T12:35:36;26.70;39.40
9118;DHT22;4594;50.994;7.126;2023-10-09T12:38:06;26.70;39.20
9118;DHT22;4594;50.994;7.126;2023-10-09T12:40:35;26.70;39.70
9118;DHT22;4594;50.994;7.126;2023-10-09T12:43:02;26.70;39.30
9118;DHT22;4594;50.994;7.126;2023-10-09T12:45:28;26.70;39.30
9118;DHT22;4594;50.994;7.126;2023-10-09T12:47:58;26.60;39.20
9118;DHT22;4594;50.994;7.126;2023-10-09T12:50:28;26.60;39.10
9118;DHT22;4594;50.994;7.126;2023-10-09T12:52:56;26.60;39.00
9118;DHT22;4594;50.994;7.126;2023-10-09T12:55:27;26.60;39.10
9118;DHT22;4594;50.994;7.126;2023-10-09T12:58:00;26.60;39.00
9118;DHT22;4594;50.994;7.126;2023-10-09T13:00:33;26.50;39.00
9118;DHT22;4594;50.994;7.126;2023-10-09T13:03:06;26.40;38.90
9118;DHT22;4594;50.994;7.126;2023-10-09T13:05:43;26.40;38.90
9118;DHT22;4594;50.994;7.126;2023-10-09T13:08:18;26.40;38.90
9118;DHT22;4594;50.994;7.126;2023-10-09T13:10:47;26.30;38.80
9118;DHT22;4594;50.994;7.126;2023-10-09T13:13:24;26.30;38.90
9118;DHT22;4594;50.994;7.126;2023-10-09T13:16:12;26.20;38.80
9118;DHT22;4594;50.994;7.126;2023-10-09T13:18:52;26.10;38.70
9118;DHT22;4594;50.994;7.126;2023-10-09T13:21:27;26.10;38.70
9118;DHT22;4594;50.994;7.126;2023-10-09T13:23:57;26.00;38.60
9118;DHT22;4594;50.994;7.126;2023-10-09T13:26:25;26.00;38.80
9118;DHT22;4594;50.994;7.126;2023-10-09T13:28:56;26.00;38.80
9118;DHT22;4594;50.994;7.126;2023-10-09T13:31:24;25.90;38.70
9118;DHT22;4594;50.994;7.126;2023-10-09T13:33:57;25.90;38.80
9118;DHT22;4594;50.994;7.126;2023-10-09T13:36:25;25.80;38.70
9118;DHT22;4594;50.994;7.126;2023-10-09T13:39:08;25.80;38.70
9118;DHT22;4594;50.994;7.126;2023-10-09T13:41:56;25.80;38.70
9118;DHT22;4594;50.994;7.126;2023-10-09T13:44:29;25.70;38.70
9118;DHT22;4594;50.994;7.126;2023-10-09T13:47:00;25.70;38.60
9118;DHT22;4594;50.994;7.126;2023-10-09T13:49:30;25.60;38.60
9118;DHT22;4594;50.994;7.126;2023-10-09T13:51:58;25.60;38.70
9118;DHT22;4594;50.994;7.126;2023-10-09T13:54:26;25.50;38.60
9118;DHT22;4594;50.994;7.126;2023-10-09T13:56:59;25.50;38.60
9118;DHT22;4594;50.994;7.126;2023-10-09T13:59:25;25.40;38.60
9118;DHT22;4594;50.994;7.126;2023-10-09T14:01:52;25.30;38.50
9118;DHT22;4594;50.994;7.126;2023-10-09T14:04:22;25.30;38.50
9118;DHT22;4594;50.994;7.126;2023-10-09T14:06:49;25.20;38.60
9118;DHT22;4594;50.994;7.126;2023-10-09T14:09:26;25.20;38.60
9118;DHT22;4594;50.994;7.126;2023-10-09T14:11:57;25.10;38.60
9118;DHT22;4594;50.994;7.126;2023-10-09T14:14:34;25.00;38.60
9118;DHT22;4594;50.994;7.126;2023-10-09T14:17:00;25.00;38.60
9118;DHT22;4594;50.994;7.126;2023-10-09T14:19:25;24.90;38.60
9118;DHT22;4594;50.994;7.126;2023-10-09T14:21:52;24.90;38.60
9118;DHT22;4594;50.994;7.126;2023-10-09T14:24:18;24.90;38.60
9118;DHT22;4594;50.994;7.126;2023-10-09T14:26:45;24.80;38.60
9118;DHT22;4594;50.994;7.126;2023-10-09T14:29:12;24.70;38.60
9118;DHT22;4594;50.994;7.126;2023-10-09T14:31:45;24.70;38.60
9118;DHT22;4594;50.994;7.126;2023-10-09T14:34:28;24.60;38.60
9118;DHT22;4594;50.994;7.126;2023-10-09T14:36:59;24.50;38.50
9118;DHT22;4594;50.994;7.126;2023-10-09T14:39:26;24.50;38.60
9118;DHT22;4594;50.994;7.126;2023-10-09T14:41:53;24.40;38.50
9118;DHT22;4594;50.994;7.126;2023-10-09T14:44:24;24.40;38.60
9118;DHT22;4594;50.994;7.126;2023-10-09T14:46:53;24.30;38.60
9118;DHT22;4594;50.994;7.126;2023-10-09T14:49:20;24.30;38.60
9118;DHT22;4594;50.994;7.126;2023-10-09T14:51:47;24.20;38.60
9118;DHT22;4594;50.994;7.126;2023-10-09T14:54:13;24.20;38.60
9118;DHT22;4594;50.994;7.126;2023-10-09T14:56:44;24.20;38.60
9118;DHT22;4594;50.994;7.126;2023-10-09T14:59:11;24.10;38.90
9118;DHT22;4594;50.994;7.126;2023-10-09T15:01:38;24.10;38.60
9118;DHT22;4594;50.994;7.126;2023-10-09T15:04:04;24.10;38.60
9118;DHT22;4594;50.994;7.126;2023-10-09T15:06:30;24.00;38.60
9118;DHT22;4594;50.994;7.126;2023-10-09T15:08:59;24.00;38.60
9118;DHT22;4594;50.994;7.126;2023-10-09T15:11:34;24.00;38.60
9118;DHT22;4594;50.994;7.126;2023-10-09T15:14:02;23.90;38.60
9118;DHT22;4594;50.994;7.126;2023-10-09T15:16:31;23.90;38.60
9118;DHT22;4594;50.994;7.126;2023-10-09T15:18:57;23.90;38.70
9118;DHT22;4594;50.994;7.126;2023-10-09T15:21:24;23.80;38.70
9118;DHT22;4594;50.994;7.126;2023-10-09T15:23:56;23.80;38.70
9118;DHT22;4594;50.994;7.126;2023-10-09T15:26:22;23.80;38.80
9118;DHT22;4594;50.994;7.126;2023-10-09T15:28:50;23.80;38.90
9118;DHT22;4594;50.994;7.126;2023-10-09T15:31:17;23.70;38.80
9118;DHT22;4594;50.994;7.126;2023-10-09T15:33:44;23.80;38.90
9118;DHT22;4594;50.994;7.126;2023-10-09T15:36:13;23.80;39.00
9118;DHT22;4594;50.994;7.126;2023-10-09T15:38:42;23.70;38.90
9118;DHT22;4594;50.994;7.126;2023-10-09T15:41:08;23.70;38.90
9118;DHT22;4594;50.994;7.126;2023-10-09T15:43:35;23.80;39.00
9118;DHT22;4594;50.994;7.126;2023-10-09T15:46:01;23.70;39.00
9118;DHT22;4594;50.994;7.126;2023-10-09T15:48:27;23.90;39.20
9118;DHT22;4594;50.994;7.126;2023-10-09T15:50:53;23.90;39.10
9118;DHT22;4594;50.994;7.126;2023-10-09T15:53:19;23.70;39.00
9118;DHT22;4594;50.994;7.126;2023-10-09T15:55:47;23.70;39.00
9118;DHT22;4594;50.994;7.126;2023-10-09T15:58:17;23.70;39.10
9118;DHT22;4594;50.994;7.126;2023-10-09T16:00:46;23.70;39.10
9118;DHT22;4594;50.994;7.126;2023-10-09T16:03:11;23.70;39.10
9118;DHT22;4594;50.994;7.126;2023-10-09T16:05:40;21.90;37.60
9118;DHT22;4594;50.994;7.126;2023-10-09T16:08:06;23.60;39.00
9118;DHT22;4594;50.994;7.126;2023-10-09T16:10:32;23.60;39.00
9118;DHT22;4594;50.994;7.126;2023-10-09T16:13:00;23.60;38.90
9118;DHT22;4594;50.994;7.126;2023-10-09T16:15:26;24.40;39.60
9118;DHT22;4594;50.994;7.126;2023-10-09T16:17:53;23.70;39.10
9118;DHT22;4594;50.994;7.126;2023-10-09T16:20:29;23.50;39.00
9118;DHT22;4594;50.994;7.126;2023-10-09T16:22:58;23.50;39.00
9118;DHT22;4594;50.994;7.126;2023-10-09T16:25:25;23.40;38.90
9118;DHT22;4594;50.994;7.126;2023-10-09T16:27:52;23.30;38.80
9118;DHT22;4594;50.994;7.126;2023-10-09T16:30:20;23.30;38.80
9118;DHT22;4594;50.994;7.126;2023-10-09T16:32:47;23.20;38.70
9118;DHT22;4594;50.994;7.126;2023-10-09T16:35:13;23.20;38.80
9118;DHT22;4594;50.994;7.126;2023-10-09T16:37:39;23.00;38.70
9118;DHT22;4594;50.994;7.126;2023-10-09T16:40:06;23.80;39.30
9118;DHT22;4594;50.994;7.126;2023-10-09T16:42:40;22.90;38.60
9118;DHT22;4594;50.994;7.126;2023-10-09T16:45:10;22.70;38.60
9118;DHT22;4594;50.994;7.126;2023-10-09T16:47:47;22.60;38.50
9118;DHT22;4594;50.994;7.126;2023-10-09T16:50:14;22.60;38.60
9118;DHT22;4594;50.994;7.126;2023-10-09T16:52:43;23.40;39.30
9118;DHT22;4594;50.994;7.126;2023-10-09T16:55:10;22.40;38.50
9118;DHT22;4594;50.994;7.126;2023-10-09T16:57:40;22.30;38.50
9118;DHT22;4594;50.994;7.126;2023-10-09T17:00:11;23.40;39.50
9118;DHT22;4594;50.994;7.126;2023-10-09T17:03:04;22.10;38.60
9118;DHT22;4594;50.994;7.126;2023-10-09T17:05:33;22.50;39.20
9118;DHT22;4594;50.994;7.126;2023-10-09T17:08:04;21.80;38.50
9118;DHT22;4594;50.994;7.126;2023-10-09T17:10:36;22.00;38.70
9118;DHT22;4594;50.994;7.126;2023-10-09T17:13:04;22.30;38.90